首页
METAR-TAF:

METAR-TAF

机场 :

Logan County Airport

林肯, 伊利诺伊州, 美国

纬度: 40-09-31N, 经度: 089-20-06W, 海拔: 182米

当前天气观测

该预报发布于38分钟前的18:15 UTC
风速9节,风向西北,有时为16节阵风
温度 3°C
湿度 56%
气压 1024 hPa
能見度: 16.1公里
天空无云

METAR: KAAA 181815Z AUTO 32009G16KT 10SM CLR 03/M05 A3024 RMK AO2 T00301048

时间: 12:53 (18:53 UTC)


TAF: 丢失

超过4000个机场的气象观测和天气预报(METAR&TAF报告)。

可查询的气象台以黄色和红色小点在地图上表示。

将鼠标移到小点上方,可查看气象台名称。

然后点击查看天气观测和预报。

如需切换地图:点击带黑十字的绿色按钮放大地图;点击带横线的绿色按钮缩小地图;或者点击绿色箭头查看邻近地区的地图。


METAR-TAF: